Algonquin, Illinois
Current Conditions -  °F | °C
As of 3:52 AM on Tuesday 21 Oct 2014 (Local Time) from KDPA Reporting Station
Overcast Overcast  
Wind Chill: 10°   Ceiling: 4800
Heat Index: 10°   Visibility: 10mi
Dew Point:   Wind: 8mph
Humidity: 77%   Direction: 350°N
Pressure: 30.03"   Gusts: NA
Location:  42.17°N, 88.29°W
Report Text: KDPA 210852Z 35007KT 10SM OVC048 10/06 A3003 RMK AO2 SLP169 T01000061 51008
Loading
Personal Weather Stations






























Interactive Weather Map
Tropical Storm Tracking
New forecast layout! Learn more

10-Day Weather Forecast

Advertisements
Track Severe Weather on mobile